sensor_id;sensor_type;location;lat;lon;timestamp;P1;durP1;ratioP1;P2;durP2;ratioP2
10418;SDS011;5256;48.728;9.140;2024-03-08T00:00:38;0.80;;;0.80;;
10418;SDS011;5256;48.728;9.140;2024-03-08T00:03:05;0.83;;;0.83;;
10418;SDS011;5256;48.728;9.140;2024-03-08T00:05:30;0.70;;;0.70;;
10418;SDS011;5256;48.728;9.140;2024-03-08T00:07:56;0.70;;;0.70;;
10418;SDS011;5256;48.728;9.140;2024-03-08T00:10:22;0.80;;;0.80;;
10418;SDS011;5256;48.728;9.140;2024-03-08T00:12:47;0.80;;;0.80;;
10418;SDS011;5256;48.728;9.140;2024-03-08T00:15:14;0.70;;;0.70;;
10418;SDS011;5256;48.728;9.140;2024-03-08T00:17:40;0.90;;;0.90;;
10418;SDS011;5256;48.728;9.140;2024-03-08T00:20:07;0.80;;;0.80;;
10418;SDS011;5256;48.728;9.140;2024-03-08T00:22:36;0.80;;;0.80;;
10418;SDS011;5256;48.728;9.140;2024-03-08T00:25:03;0.80;;;0.80;;
10418;SDS011;5256;48.728;9.140;2024-03-08T00:27:29;0.80;;;0.80;;
10418;SDS011;5256;48.728;9.140;2024-03-08T00:29:57;0.80;;;0.80;;
10418;SDS011;5256;48.728;9.140;2024-03-08T00:32:23;0.90;;;0.90;;
10418;SDS011;5256;48.728;9.140;2024-03-08T00:34:52;0.80;;;0.80;;
10418;SDS011;5256;48.728;9.140;2024-03-08T00:37:19;0.87;;;0.87;;
10418;SDS011;5256;48.728;9.140;2024-03-08T00:39:46;0.80;;;0.80;;
10418;SDS011;5256;48.728;9.140;2024-03-08T00:42:12;0.80;;;0.80;;
10418;SDS011;5256;48.728;9.140;2024-03-08T00:44:38;0.80;;;0.80;;
10418;SDS011;5256;48.728;9.140;2024-03-08T00:47:05;0.83;;;0.83;;
10418;SDS011;5256;48.728;9.140;2024-03-08T00:49:30;0.90;;;0.90;;
10418;SDS011;5256;48.728;9.140;2024-03-08T00:51:56;0.90;;;0.90;;
10418;SDS011;5256;48.728;9.140;2024-03-08T00:54:21;0.90;;;0.90;;
10418;SDS011;5256;48.728;9.140;2024-03-08T00:56:47;0.90;;;0.90;;
10418;SDS011;5256;48.728;9.140;2024-03-08T00:59:12;0.80;;;0.80;;
10418;SDS011;5256;48.728;9.140;2024-03-08T01:01:39;0.90;;;0.90;;
10418;SDS011;5256;48.728;9.140;2024-03-08T01:04:05;0.90;;;0.90;;
10418;SDS011;5256;48.728;9.140;2024-03-08T01:06:32;0.90;;;0.90;;
10418;SDS011;5256;48.728;9.140;2024-03-08T01:08:58;0.90;;;0.90;;
10418;SDS011;5256;48.728;9.140;2024-03-08T01:11:23;0.80;;;0.80;;
10418;SDS011;5256;48.728;9.140;2024-03-08T01:13:49;0.90;;;0.90;;
10418;SDS011;5256;48.728;9.140;2024-03-08T01:16:14;0.80;;;0.80;;
10418;SDS011;5256;48.728;9.140;2024-03-08T01:18:41;0.90;;;0.90;;
10418;SDS011;5256;48.728;9.140;2024-03-08T01:21:07;0.80;;;0.80;;
10418;SDS011;5256;48.728;9.140;2024-03-08T01:23:33;0.90;;;0.90;;
10418;SDS011;5256;48.728;9.140;2024-03-08T01:25:59;0.90;;;0.90;;
10418;SDS011;5256;48.728;9.140;2024-03-08T01:28:27;0.90;;;0.90;;
10418;SDS011;5256;48.728;9.140;2024-03-08T01:30:53;0.90;;;0.90;;
10418;SDS011;5256;48.728;9.140;2024-03-08T01:33:22;0.90;;;0.90;;
10418;SDS011;5256;48.728;9.140;2024-03-08T01:35:50;0.90;;;0.90;;
10418;SDS011;5256;48.728;9.140;2024-03-08T01:38:16;0.90;;;0.90;;
10418;SDS011;5256;48.728;9.140;2024-03-08T01:40:42;0.90;;;0.90;;
10418;SDS011;5256;48.728;9.140;2024-03-08T01:43:26;0.80;;;0.80;;
10418;SDS011;5256;48.728;9.140;2024-03-08T01:45:57;0.90;;;0.90;;
10418;SDS011;5256;48.728;9.140;2024-03-08T01:48:26;1.00;;;1.00;;
10418;SDS011;5256;48.728;9.140;2024-03-08T01:50:54;0.83;;;0.83;;
10418;SDS011;5256;48.728;9.140;2024-03-08T01:53:21;0.80;;;0.80;;
10418;SDS011;5256;48.728;9.140;2024-03-08T01:55:48;0.90;;;0.90;;
10418;SDS011;5256;48.728;9.140;2024-03-08T01:58:15;0.90;;;0.90;;
10418;SDS011;5256;48.728;9.140;2024-03-08T02:00:43;0.90;;;0.90;;
10418;SDS011;5256;48.728;9.140;2024-03-08T02:03:11;0.90;;;0.90;;
10418;SDS011;5256;48.728;9.140;2024-03-08T02:05:37;0.80;;;0.80;;
10418;SDS011;5256;48.728;9.140;2024-03-08T02:08:05;1.00;;;1.00;;
10418;SDS011;5256;48.728;9.140;2024-03-08T02:10:38;1.00;;;1.00;;
10418;SDS011;5256;48.728;9.140;2024-03-08T02:13:04;0.93;;;0.93;;
10418;SDS011;5256;48.728;9.140;2024-03-08T02:18:17;0.90;;;0.90;;
10418;SDS011;5256;48.728;9.140;2024-03-08T02:20:43;0.90;;;0.90;;
10418;SDS011;5256;48.728;9.140;2024-03-08T02:23:12;0.90;;;0.90;;
10418;SDS011;5256;48.728;9.140;2024-03-08T02:25:39;1.00;;;1.00;;
10418;SDS011;5256;48.728;9.140;2024-03-08T02:28:04;0.90;;;0.90;;
10418;SDS011;5256;48.728;9.140;2024-03-08T02:30:30;0.90;;;0.90;;
10418;SDS011;5256;48.728;9.140;2024-03-08T02:32:56;0.90;;;0.90;;
10418;SDS011;5256;48.728;9.140;2024-03-08T02:35:22;0.90;;;0.90;;
10418;SDS011;5256;48.728;9.140;2024-03-08T02:37:48;0.90;;;0.90;;
10418;SDS011;5256;48.728;9.140;2024-03-08T02:40:13;0.90;;;0.90;;
10418;SDS011;5256;48.728;9.140;2024-03-08T02:42:39;0.90;;;0.90;;
10418;SDS011;5256;48.728;9.140;2024-03-08T02:45:05;0.90;;;0.90;;
10418;SDS011;5256;48.728;9.140;2024-03-08T02:47:31;0.90;;;0.90;;
10418;SDS011;5256;48.728;9.140;2024-03-08T02:49:57;0.80;;;0.80;;
10418;SDS011;5256;48.728;9.140;2024-03-08T02:52:22;0.93;;;0.93;;
10418;SDS011;5256;48.728;9.140;2024-03-08T02:54:48;0.90;;;0.90;;
10418;SDS011;5256;48.728;9.140;2024-03-08T02:57:14;1.00;;;1.00;;
10418;SDS011;5256;48.728;9.140;2024-03-08T02:59:40;1.10;;;1.10;;
10418;SDS011;5256;48.728;9.140;2024-03-08T03:02:06;0.90;;;0.90;;
10418;SDS011;5256;48.728;9.140;2024-03-08T03:04:32;0.90;;;0.90;;
10418;SDS011;5256;48.728;9.140;2024-03-08T03:06:59;0.90;;;0.90;;
10418;SDS011;5256;48.728;9.140;2024-03-08T03:09:25;0.83;;;0.83;;
10418;SDS011;5256;48.728;9.140;2024-03-08T03:11:53;0.90;;;0.90;;
10418;SDS011;5256;48.728;9.140;2024-03-08T03:14:19;0.93;;;0.93;;
10418;SDS011;5256;48.728;9.140;2024-03-08T03:16:46;0.90;;;0.90;;
10418;SDS011;5256;48.728;9.140;2024-03-08T03:19:11;0.93;;;0.93;;
10418;SDS011;5256;48.728;9.140;2024-03-08T03:21:37;0.90;;;0.90;;
10418;SDS011;5256;48.728;9.140;2024-03-08T03:24:03;0.90;;;0.90;;
10418;SDS011;5256;48.728;9.140;2024-03-08T03:26:35;0.90;;;0.90;;
10418;SDS011;5256;48.728;9.140;2024-03-08T03:29:07;1.00;;;1.00;;
10418;SDS011;5256;48.728;9.140;2024-03-08T03:31:34;1.10;;;1.10;;
10418;SDS011;5256;48.728;9.140;2024-03-08T03:34:01;1.00;;;1.00;;
10418;SDS011;5256;48.728;9.140;2024-03-08T03:36:30;0.87;;;0.87;;
10418;SDS011;5256;48.728;9.140;2024-03-08T03:38:56;1.00;;;1.00;;
10418;SDS011;5256;48.728;9.140;2024-03-08T03:41:30;0.90;;;0.90;;
10418;SDS011;5256;48.728;9.140;2024-03-08T03:43:56;0.90;;;0.90;;
10418;SDS011;5256;48.728;9.140;2024-03-08T03:46:22;0.87;;;0.87;;
10418;SDS011;5256;48.728;9.140;2024-03-08T03:48:47;1.00;;;1.00;;
10418;SDS011;5256;48.728;9.140;2024-03-08T03:51:13;0.90;;;0.90;;
10418;SDS011;5256;48.728;9.140;2024-03-08T03:53:40;1.10;;;1.10;;
10418;SDS011;5256;48.728;9.140;2024-03-08T03:56:06;1.00;;;1.00;;
10418;SDS011;5256;48.728;9.140;2024-03-08T03:58:32;1.00;;;1.00;;
10418;SDS011;5256;48.728;9.140;2024-03-08T04:00:58;1.00;;;1.00;;
10418;SDS011;5256;48.728;9.140;2024-03-08T04:03:23;0.90;;;0.90;;
10418;SDS011;5256;48.728;9.140;2024-03-08T04:05:49;1.00;;;1.00;;
10418;SDS011;5256;48.728;9.140;2024-03-08T04:08:15;0.90;;;0.90;;
10418;SDS011;5256;48.728;9.140;2024-03-08T04:10:42;0.93;;;0.93;;
10418;SDS011;5256;48.728;9.140;2024-03-08T04:13:07;1.10;;;1.10;;
10418;SDS011;5256;48.728;9.140;2024-03-08T04:15:34;1.00;;;1.00;;
10418;SDS011;5256;48.728;9.140;2024-03-08T04:18:00;1.00;;;1.00;;
10418;SDS011;5256;48.728;9.140;2024-03-08T04:20:26;1.00;;;1.00;;
10418;SDS011;5256;48.728;9.140;2024-03-08T04:22:51;1.00;;;1.00;;
10418;SDS011;5256;48.728;9.140;2024-03-08T04:25:17;1.00;;;1.00;;
10418;SDS011;5256;48.728;9.140;2024-03-08T04:27:42;1.10;;;1.10;;
10418;SDS011;5256;48.728;9.140;2024-03-08T04:30:09;1.00;;;1.00;;
10418;SDS011;5256;48.728;9.140;2024-03-08T04:32:35;0.97;;;0.97;;
10418;SDS011;5256;48.728;9.140;2024-03-08T04:35:01;1.00;;;1.00;;
10418;SDS011;5256;48.728;9.140;2024-03-08T04:37:28;1.00;;;1.00;;
10418;SDS011;5256;48.728;9.140;2024-03-08T04:39:56;0.90;;;0.90;;
10418;SDS011;5256;48.728;9.140;2024-03-08T04:42:22;1.00;;;1.00;;
10418;SDS011;5256;48.728;9.140;2024-03-08T04:44:48;0.90;;;0.90;;
10418;SDS011;5256;48.728;9.140;2024-03-08T04:47:13;0.90;;;0.90;;
10418;SDS011;5256;48.728;9.140;2024-03-08T04:49:39;1.10;;;1.10;;
10418;SDS011;5256;48.728;9.140;2024-03-08T04:52:04;0.90;;;0.90;;
10418;SDS011;5256;48.728;9.140;2024-03-08T04:54:31;1.10;;;1.10;;
10418;SDS011;5256;48.728;9.140;2024-03-08T04:56:57;1.00;;;1.00;;
10418;SDS011;5256;48.728;9.140;2024-03-08T04:59:25;1.03;;;1.03;;
10418;SDS011;5256;48.728;9.140;2024-03-08T05:01:51;0.90;;;0.90;;
10418;SDS011;5256;48.728;9.140;2024-03-08T05:04:17;0.97;;;0.97;;
10418;SDS011;5256;48.728;9.140;2024-03-08T05:06:42;0.93;;;0.93;;
10418;SDS011;5256;48.728;9.140;2024-03-08T05:09:08;0.90;;;0.90;;
10418;SDS011;5256;48.728;9.140;2024-03-08T05:11:44;1.00;;;1.00;;
10418;SDS011;5256;48.728;9.140;2024-03-08T05:14:10;1.00;;;1.00;;
10418;SDS011;5256;48.728;9.140;2024-03-08T05:16:41;1.10;;;1.10;;
10418;SDS011;5256;48.728;9.140;2024-03-08T05:19:16;0.90;;;0.90;;
10418;SDS011;5256;48.728;9.140;2024-03-08T05:21:43;0.90;;;0.90;;
10418;SDS011;5256;48.728;9.140;2024-03-08T05:24:12;1.00;;;1.00;;
10418;SDS011;5256;48.728;9.140;2024-03-08T05:26:38;0.90;;;0.90;;
10418;SDS011;5256;48.728;9.140;2024-03-08T05:29:04;1.07;;;1.07;;
10418;SDS011;5256;48.728;9.140;2024-03-08T05:31:30;0.90;;;0.90;;
10418;SDS011;5256;48.728;9.140;2024-03-08T05:34:04;0.97;;;0.97;;
10418;SDS011;5256;48.728;9.140;2024-03-08T05:36:29;0.93;;;0.93;;
10418;SDS011;5256;48.728;9.140;2024-03-08T05:38:57;0.90;;;0.90;;
10418;SDS011;5256;48.728;9.140;2024-03-08T05:41:23;1.00;;;1.00;;
10418;SDS011;5256;48.728;9.140;2024-03-08T05:43:50;0.97;;;0.97;;
10418;SDS011;5256;48.728;9.140;2024-03-08T05:46:15;1.00;;;1.00;;
10418;SDS011;5256;48.728;9.140;2024-03-08T05:48:43;1.00;;;1.00;;
10418;SDS011;5256;48.728;9.140;2024-03-08T05:51:08;1.07;;;1.07;;
10418;SDS011;5256;48.728;9.140;2024-03-08T05:53:34;0.90;;;0.90;;
10418;SDS011;5256;48.728;9.140;2024-03-08T05:56:00;1.00;;;1.00;;
10418;SDS011;5256;48.728;9.140;2024-03-08T05:58:27;1.00;;;1.00;;
10418;SDS011;5256;48.728;9.140;2024-03-08T06:00:55;0.90;;;0.90;;
10418;SDS011;5256;48.728;9.140;2024-03-08T06:03:20;1.07;;;1.07;;
10418;SDS011;5256;48.728;9.140;2024-03-08T06:05:47;0.93;;;0.93;;
10418;SDS011;5256;48.728;9.140;2024-03-08T06:08:13;0.90;;;0.90;;
10418;SDS011;5256;48.728;9.140;2024-03-08T06:10:39;0.90;;;0.90;;
10418;SDS011;5256;48.728;9.140;2024-03-08T06:13:05;1.10;;;1.10;;
10418;SDS011;5256;48.728;9.140;2024-03-08T06:15:31;1.00;;;1.00;;
10418;SDS011;5256;48.728;9.140;2024-03-08T06:17:57;1.00;;;1.00;;
10418;SDS011;5256;48.728;9.140;2024-03-08T06:20:22;0.90;;;0.90;;
10418;SDS011;5256;48.728;9.140;2024-03-08T06:22:51;1.00;;;1.00;;
10418;SDS011;5256;48.728;9.140;2024-03-08T06:25:17;0.93;;;0.93;;
10418;SDS011;5256;48.728;9.140;2024-03-08T06:27:42;1.00;;;1.00;;
10418;SDS011;5256;48.728;9.140;2024-03-08T06:30:08;1.10;;;1.10;;
10418;SDS011;5256;48.728;9.140;2024-03-08T06:32:35;1.00;;;1.00;;
10418;SDS011;5256;48.728;9.140;2024-03-08T06:35:02;1.10;;;1.10;;
10418;SDS011;5256;48.728;9.140;2024-03-08T06:37:31;1.00;;;1.00;;
10418;SDS011;5256;48.728;9.140;2024-03-08T06:39:59;1.10;;;1.10;;
10418;SDS011;5256;48.728;9.140;2024-03-08T06:42:26;0.90;;;0.90;;
10418;SDS011;5256;48.728;9.140;2024-03-08T06:44:53;1.00;;;1.00;;
10418;SDS011;5256;48.728;9.140;2024-03-08T06:47:21;0.90;;;0.90;;
10418;SDS011;5256;48.728;9.140;2024-03-08T06:49:47;0.87;;;0.87;;
10418;SDS011;5256;48.728;9.140;2024-03-08T06:52:14;0.80;;;0.80;;
10418;SDS011;5256;48.728;9.140;2024-03-08T06:54:40;0.90;;;0.90;;
10418;SDS011;5256;48.728;9.140;2024-03-08T06:57:05;0.80;;;0.80;;
10418;SDS011;5256;48.728;9.140;2024-03-08T06:59:31;0.80;;;0.80;;
10418;SDS011;5256;48.728;9.140;2024-03-08T07:01:57;0.93;;;0.93;;
10418;SDS011;5256;48.728;9.140;2024-03-08T07:04:24;0.83;;;0.83;;
10418;SDS011;5256;48.728;9.140;2024-03-08T07:06:53;0.87;;;0.87;;
10418;SDS011;5256;48.728;9.140;2024-03-08T07:09:19;0.80;;;0.80;;
10418;SDS011;5256;48.728;9.140;2024-03-08T07:11:45;0.90;;;0.90;;
10418;SDS011;5256;48.728;9.140;2024-03-08T07:14:11;0.80;;;0.80;;
10418;SDS011;5256;48.728;9.140;2024-03-08T07:16:37;0.90;;;0.90;;
10418;SDS011;5256;48.728;9.140;2024-03-08T07:19:04;0.80;;;0.80;;
10418;SDS011;5256;48.728;9.140;2024-03-08T07:21:30;0.80;;;0.80;;
10418;SDS011;5256;48.728;9.140;2024-03-08T07:23:56;0.80;;;0.80;;
10418;SDS011;5256;48.728;9.140;2024-03-08T07:26:24;0.80;;;0.80;;
10418;SDS011;5256;48.728;9.140;2024-03-08T07:28:50;0.80;;;0.80;;
10418;SDS011;5256;48.728;9.140;2024-03-08T07:31:16;0.80;;;0.80;;
10418;SDS011;5256;48.728;9.140;2024-03-08T07:33:50;0.80;;;0.80;;
10418;SDS011;5256;48.728;9.140;2024-03-08T07:36:16;0.80;;;0.80;;
10418;SDS011;5256;48.728;9.140;2024-03-08T07:38:41;0.90;;;0.90;;
10418;SDS011;5256;48.728;9.140;2024-03-08T07:41:07;0.80;;;0.80;;
10418;SDS011;5256;48.728;9.140;2024-03-08T07:43:32;0.80;;;0.80;;
10418;SDS011;5256;48.728;9.140;2024-03-08T07:45:58;0.80;;;0.80;;
10418;SDS011;5256;48.728;9.140;2024-03-08T07:48:23;0.83;;;0.83;;
10418;SDS011;5256;48.728;9.140;2024-03-08T07:50:49;0.70;;;0.70;;
10418;SDS011;5256;48.728;9.140;2024-03-08T07:53:15;0.80;;;0.80;;
10418;SDS011;5256;48.728;9.140;2024-03-08T07:55:40;0.80;;;0.80;;
10418;SDS011;5256;48.728;9.140;2024-03-08T07:58:07;0.90;;;0.90;;
10418;SDS011;5256;48.728;9.140;2024-03-08T08:00:35;0.80;;;0.80;;
10418;SDS011;5256;48.728;9.140;2024-03-08T08:03:01;0.70;;;0.70;;
10418;SDS011;5256;48.728;9.140;2024-03-08T08:05:27;0.80;;;0.80;;
10418;SDS011;5256;48.728;9.140;2024-03-08T08:07:53;0.70;;;0.70;;
10418;SDS011;5256;48.728;9.140;2024-03-08T08:10:19;0.80;;;0.80;;
10418;SDS011;5256;48.728;9.140;2024-03-08T08:12:47;0.70;;;0.70;;
10418;SDS011;5256;48.728;9.140;2024-03-08T08:15:13;0.70;;;0.70;;
10418;SDS011;5256;48.728;9.140;2024-03-08T08:17:43;0.73;;;0.73;;
10418;SDS011;5256;48.728;9.140;2024-03-08T08:20:09;0.80;;;0.80;;
10418;SDS011;5256;48.728;9.140;2024-03-08T08:22:36;0.80;;;0.80;;
10418;SDS011;5256;48.728;9.140;2024-03-08T08:25:05;0.80;;;0.80;;
10418;SDS011;5256;48.728;9.140;2024-03-08T08:27:32;0.70;;;0.70;;
10418;SDS011;5256;48.728;9.140;2024-03-08T08:29:58;0.73;;;0.73;;
10418;SDS011;5256;48.728;9.140;2024-03-08T08:32:23;0.80;;;0.80;;
10418;SDS011;5256;48.728;9.140;2024-03-08T08:34:49;0.90;;;0.90;;
10418;SDS011;5256;48.728;9.140;2024-03-08T08:37:14;0.80;;;0.80;;
10418;SDS011;5256;48.728;9.140;2024-03-08T08:39:41;0.70;;;0.70;;
10418;SDS011;5256;48.728;9.140;2024-03-08T08:42:07;0.80;;;0.80;;
10418;SDS011;5256;48.728;9.140;2024-03-08T08:44:34;0.70;;;0.70;;
10418;SDS011;5256;48.728;9.140;2024-03-08T08:47:00;0.70;;;0.70;;
10418;SDS011;5256;48.728;9.140;2024-03-08T08:49:26;0.70;;;0.70;;
10418;SDS011;5256;48.728;9.140;2024-03-08T08:51:52;0.70;;;0.70;;
10418;SDS011;5256;48.728;9.140;2024-03-08T08:54:18;0.80;;;0.80;;
10418;SDS011;5256;48.728;9.140;2024-03-08T08:56:44;0.70;;;0.70;;
10418;SDS011;5256;48.728;9.140;2024-03-08T08:59:10;0.70;;;0.70;;
10418;SDS011;5256;48.728;9.140;2024-03-08T09:01:39;0.73;;;0.73;;
10418;SDS011;5256;48.728;9.140;2024-03-08T09:04:05;0.77;;;0.77;;
10418;SDS011;5256;48.728;9.140;2024-03-08T09:06:31;0.80;;;0.80;;
10418;SDS011;5256;48.728;9.140;2024-03-08T09:08:56;0.80;;;0.80;;
10418;SDS011;5256;48.728;9.140;2024-03-08T09:11:22;0.90;;;0.90;;
10418;SDS011;5256;48.728;9.140;2024-03-08T09:13:50;0.80;;;0.80;;
10418;SDS011;5256;48.728;9.140;2024-03-08T09:16:15;0.70;;;0.70;;
10418;SDS011;5256;48.728;9.140;2024-03-08T09:18:41;0.70;;;0.70;;
10418;SDS011;5256;48.728;9.140;2024-03-08T09:21:07;0.70;;;0.70;;
10418;SDS011;5256;48.728;9.140;2024-03-08T09:23:35;0.70;;;0.70;;
10418;SDS011;5256;48.728;9.140;2024-03-08T09:26:00;0.70;;;0.70;;
10418;SDS011;5256;48.728;9.140;2024-03-08T09:28:28;0.70;;;0.70;;
10418;SDS011;5256;48.728;9.140;2024-03-08T09:30:53;0.70;;;0.70;;
10418;SDS011;5256;48.728;9.140;2024-03-08T09:33:20;0.60;;;0.60;;
10418;SDS011;5256;48.728;9.140;2024-03-08T09:35:46;0.70;;;0.70;;
10418;SDS011;5256;48.728;9.140;2024-03-08T09:38:16;0.70;;;0.70;;
10418;SDS011;5256;48.728;9.140;2024-03-08T09:40:41;0.70;;;0.70;;
10418;SDS011;5256;48.728;9.140;2024-03-08T09:43:07;0.70;;;0.70;;
10418;SDS011;5256;48.728;9.140;2024-03-08T09:45:35;0.70;;;0.70;;
10418;SDS011;5256;48.728;9.140;2024-03-08T09:48:05;0.70;;;0.70;;
10418;SDS011;5256;48.728;9.140;2024-03-08T09:50:43;0.70;;;0.70;;
10418;SDS011;5256;48.728;9.140;2024-03-08T09:53:11;0.70;;;0.70;;
10418;SDS011;5256;48.728;9.140;2024-03-08T09:55:37;0.80;;;0.80;;
10418;SDS011;5256;48.728;9.140;2024-03-08T09:58:07;0.70;;;0.70;;
10418;SDS011;5256;48.728;9.140;2024-03-08T10:00:53;0.70;;;0.70;;
10418;SDS011;5256;48.728;9.140;2024-03-08T10:03:22;0.70;;;0.70;;
10418;SDS011;5256;48.728;9.140;2024-03-08T10:05:48;0.70;;;0.70;;
10418;SDS011;5256;48.728;9.140;2024-03-08T10:08:13;0.67;;;0.67;;
10418;SDS011;5256;48.728;9.140;2024-03-08T10:10:39;0.70;;;0.70;;
10418;SDS011;5256;48.728;9.140;2024-03-08T10:13:08;0.60;;;0.60;;
10418;SDS011;5256;48.728;9.140;2024-03-08T10:15:35;0.70;;;0.70;;
10418;SDS011;5256;48.728;9.140;2024-03-08T10:18:01;0.70;;;0.70;;
10418;SDS011;5256;48.728;9.140;2024-03-08T10:20:27;0.60;;;0.60;;
10418;SDS011;5256;48.728;9.140;2024-03-08T10:22:58;0.60;;;0.60;;
10418;SDS011;5256;48.728;9.140;2024-03-08T10:25:25;0.60;;;0.60;;
10418;SDS011;5256;48.728;9.140;2024-03-08T10:27:50;0.70;;;0.70;;
10418;SDS011;5256;48.728;9.140;2024-03-08T10:30:16;0.60;;;0.60;;
10418;SDS011;5256;48.728;9.140;2024-03-08T10:32:46;0.70;;;0.70;;
10418;SDS011;5256;48.728;9.140;2024-03-08T10:35:12;0.70;;;0.70;;
10418;SDS011;5256;48.728;9.140;2024-03-08T10:37:48;0.70;;;0.70;;
10418;SDS011;5256;48.728;9.140;2024-03-08T10:40:18;0.70;;;0.70;;
10418;SDS011;5256;48.728;9.140;2024-03-08T10:43:00;0.60;;;0.60;;
10418;SDS011;5256;48.728;9.140;2024-03-08T10:51:02;0.77;;;0.77;;
10418;SDS011;5256;48.728;9.140;2024-03-08T10:53:28;0.60;;;0.60;;
10418;SDS011;5256;48.728;9.140;2024-03-08T10:55:56;0.50;;;0.50;;
10418;SDS011;5256;48.728;9.140;2024-03-08T10:58:22;0.60;;;0.60;;
10418;SDS011;5256;48.728;9.140;2024-03-08T11:00:56;0.60;;;0.60;;
10418;SDS011;5256;48.728;9.140;2024-03-08T11:06:07;0.60;;;0.60;;
10418;SDS011;5256;48.728;9.140;2024-03-08T11:08:35;0.70;;;0.70;;
10418;SDS011;5256;48.728;9.140;2024-03-08T11:11:01;0.70;;;0.70;;
10418;SDS011;5256;48.728;9.140;2024-03-08T11:13:40;0.70;;;0.70;;
10418;SDS011;5256;48.728;9.140;2024-03-08T11:16:11;0.60;;;0.60;;
10418;SDS011;5256;48.728;9.140;2024-03-08T11:19:01;0.50;;;0.50;;
10418;SDS011;5256;48.728;9.140;2024-03-08T11:21:35;0.60;;;0.60;;
10418;SDS011;5256;48.728;9.140;2024-03-08T11:24:11;0.60;;;0.60;;
10418;SDS011;5256;48.728;9.140;2024-03-08T11:26:38;0.57;;;0.57;;
10418;SDS011;5256;48.728;9.140;2024-03-08T11:31:52;0.70;;;0.70;;
10418;SDS011;5256;48.728;9.140;2024-03-08T11:34:47;0.60;;;0.60;;
10418;SDS011;5256;48.728;9.140;2024-03-08T11:37:17;0.60;;;0.60;;
10418;SDS011;5256;48.728;9.140;2024-03-08T11:39:49;0.70;;;0.70;;
10418;SDS011;5256;48.728;9.140;2024-03-08T11:42:16;0.63;;;0.63;;
10418;SDS011;5256;48.728;9.140;2024-03-08T11:44:44;0.60;;;0.60;;
10418;SDS011;5256;48.728;9.140;2024-03-08T11:47:13;0.67;;;0.67;;
10418;SDS011;5256;48.728;9.140;2024-03-08T11:49:40;0.70;;;0.70;;
10418;SDS011;5256;48.728;9.140;2024-03-08T11:52:15;0.60;;;0.60;;
10418;SDS011;5256;48.728;9.140;2024-03-08T11:54:43;0.70;;;0.70;;
10418;SDS011;5256;48.728;9.140;2024-03-08T11:57:24;0.60;;;0.60;;
10418;SDS011;5256;48.728;9.140;2024-03-08T11:59:50;0.60;;;0.60;;
10418;SDS011;5256;48.728;9.140;2024-03-08T12:02:16;0.70;;;0.70;;
10418;SDS011;5256;48.728;9.140;2024-03-08T12:04:44;0.63;;;0.63;;
10418;SDS011;5256;48.728;9.140;2024-03-08T12:07:11;0.70;;;0.70;;
10418;SDS011;5256;48.728;9.140;2024-03-08T12:09:39;0.60;;;0.60;;
10418;SDS011;5256;48.728;9.140;2024-03-08T12:12:06;0.60;;;0.60;;
10418;SDS011;5256;48.728;9.140;2024-03-08T12:14:33;0.60;;;0.60;;
10418;SDS011;5256;48.728;9.140;2024-03-08T12:17:02;0.70;;;0.70;;
10418;SDS011;5256;48.728;9.140;2024-03-08T12:19:29;0.60;;;0.60;;
10418;SDS011;5256;48.728;9.140;2024-03-08T12:21:55;0.60;;;0.60;;
10418;SDS011;5256;48.728;9.140;2024-03-08T12:24:21;0.70;;;0.70;;
10418;SDS011;5256;48.728;9.140;2024-03-08T12:26:47;0.60;;;0.60;;
10418;SDS011;5256;48.728;9.140;2024-03-08T12:29:25;0.50;;;0.50;;
10418;SDS011;5256;48.728;9.140;2024-03-08T12:31:57;0.63;;;0.63;;
10418;SDS011;5256;48.728;9.140;2024-03-08T12:34:26;0.60;;;0.60;;
10418;SDS011;5256;48.728;9.140;2024-03-08T12:36:53;0.60;;;0.60;;
10418;SDS011;5256;48.728;9.140;2024-03-08T12:39:20;0.70;;;0.70;;
10418;SDS011;5256;48.728;9.140;2024-03-08T12:41:52;0.60;;;0.60;;
10418;SDS011;5256;48.728;9.140;2024-03-08T12:44:19;0.70;;;0.70;;
10418;SDS011;5256;48.728;9.140;2024-03-08T12:46:46;0.60;;;0.60;;
10418;SDS011;5256;48.728;9.140;2024-03-08T12:49:13;0.80;;;0.80;;
10418;SDS011;5256;48.728;9.140;2024-03-08T12:51:42;0.70;;;0.70;;
10418;SDS011;5256;48.728;9.140;2024-03-08T12:54:09;0.80;;;0.80;;
10418;SDS011;5256;48.728;9.140;2024-03-08T12:56:35;0.80;;;0.80;;
10418;SDS011;5256;48.728;9.140;2024-03-08T12:59:02;0.70;;;0.70;;
10418;SDS011;5256;48.728;9.140;2024-03-08T13:01:29;0.80;;;0.80;;
10418;SDS011;5256;48.728;9.140;2024-03-08T13:03:57;0.70;;;0.70;;
10418;SDS011;5256;48.728;9.140;2024-03-08T13:06:27;0.60;;;0.60;;
10418;SDS011;5256;48.728;9.140;2024-03-08T13:08:55;0.60;;;0.60;;
10418;SDS011;5256;48.728;9.140;2024-03-08T13:11:21;0.70;;;0.70;;
10418;SDS011;5256;48.728;9.140;2024-03-08T13:13:48;0.60;;;0.60;;
10418;SDS011;5256;48.728;9.140;2024-03-08T13:16:14;0.67;;;0.67;;
10418;SDS011;5256;48.728;9.140;2024-03-08T13:18:43;0.70;;;0.70;;
10418;SDS011;5256;48.728;9.140;2024-03-08T13:21:10;0.63;;;0.63;;
10418;SDS011;5256;48.728;9.140;2024-03-08T13:23:36;0.70;;;0.70;;
10418;SDS011;5256;48.728;9.140;2024-03-08T13:26:08;0.60;;;0.60;;
10418;SDS011;5256;48.728;9.140;2024-03-08T13:28:47;0.70;;;0.70;;
10418;SDS011;5256;48.728;9.140;2024-03-08T13:31:17;0.60;;;0.60;;
10418;SDS011;5256;48.728;9.140;2024-03-08T13:33:42;0.60;;;0.60;;
10418;SDS011;5256;48.728;9.140;2024-03-08T13:36:12;0.60;;;0.60;;
10418;SDS011;5256;48.728;9.140;2024-03-08T13:38:44;0.60;;;0.60;;
10418;SDS011;5256;48.728;9.140;2024-03-08T13:41:11;0.60;;;0.60;;
10418;SDS011;5256;48.728;9.140;2024-03-08T13:43:39;0.60;;;0.60;;
10418;SDS011;5256;48.728;9.140;2024-03-08T13:46:08;0.60;;;0.60;;
10418;SDS011;5256;48.728;9.140;2024-03-08T13:48:35;0.70;;;0.70;;
10418;SDS011;5256;48.728;9.140;2024-03-08T13:51:02;0.40;;;0.40;;
10418;SDS011;5256;48.728;9.140;2024-03-08T13:53:30;0.50;;;0.50;;
10418;SDS011;5256;48.728;9.140;2024-03-08T13:55:57;0.60;;;0.60;;
10418;SDS011;5256;48.728;9.140;2024-03-08T13:58:22;0.50;;;0.50;;
10418;SDS011;5256;48.728;9.140;2024-03-08T14:00:48;0.60;;;0.60;;
10418;SDS011;5256;48.728;9.140;2024-03-08T14:03:16;0.60;;;0.60;;
10418;SDS011;5256;48.728;9.140;2024-03-08T14:05:43;0.60;;;0.60;;
10418;SDS011;5256;48.728;9.140;2024-03-08T14:08:09;0.60;;;0.60;;
10418;SDS011;5256;48.728;9.140;2024-03-08T14:10:37;0.70;;;0.70;;
10418;SDS011;5256;48.728;9.140;2024-03-08T14:13:03;0.50;;;0.50;;
10418;SDS011;5256;48.728;9.140;2024-03-08T14:15:33;0.50;;;0.50;;
10418;SDS011;5256;48.728;9.140;2024-03-08T14:18:01;0.50;;;0.50;;
10418;SDS011;5256;48.728;9.140;2024-03-08T14:20:27;0.60;;;0.60;;
10418;SDS011;5256;48.728;9.140;2024-03-08T14:22:56;0.60;;;0.60;;
10418;SDS011;5256;48.728;9.140;2024-03-08T14:25:23;0.50;;;0.50;;
10418;SDS011;5256;48.728;9.140;2024-03-08T14:27:51;0.50;;;0.50;;
10418;SDS011;5256;48.728;9.140;2024-03-08T14:30:27;0.63;;;0.63;;
10418;SDS011;5256;48.728;9.140;2024-03-08T14:33:06;0.50;;;0.50;;
10418;SDS011;5256;48.728;9.140;2024-03-08T14:35:36;0.50;;;0.50;;
10418;SDS011;5256;48.728;9.140;2024-03-08T14:38:06;0.60;;;0.60;;
10418;SDS011;5256;48.728;9.140;2024-03-08T14:40:36;0.57;;;0.57;;
10418;SDS011;5256;48.728;9.140;2024-03-08T14:43:02;0.60;;;0.60;;
10418;SDS011;5256;48.728;9.140;2024-03-08T14:45:29;0.60;;;0.60;;
10418;SDS011;5256;48.728;9.140;2024-03-08T14:47:55;0.50;;;0.50;;
10418;SDS011;5256;48.728;9.140;2024-03-08T14:50:22;0.60;;;0.60;;
10418;SDS011;5256;48.728;9.140;2024-03-08T14:52:49;0.50;;;0.50;;
10418;SDS011;5256;48.728;9.140;2024-03-08T14:55:16;0.57;;;0.57;;
10418;SDS011;5256;48.728;9.140;2024-03-08T14:57:44;0.50;;;0.50;;
10418;SDS011;5256;48.728;9.140;2024-03-08T15:00:10;0.60;;;0.60;;
10418;SDS011;5256;48.728;9.140;2024-03-08T15:02:44;0.50;;;0.50;;
10418;SDS011;5256;48.728;9.140;2024-03-08T15:05:10;0.50;;;0.50;;
10418;SDS011;5256;48.728;9.140;2024-03-08T15:07:38;0.50;;;0.50;;
10418;SDS011;5256;48.728;9.140;2024-03-08T15:10:05;0.50;;;0.50;;
10418;SDS011;5256;48.728;9.140;2024-03-08T15:12:36;0.50;;;0.50;;
10418;SDS011;5256;48.728;9.140;2024-03-08T15:15:04;0.50;;;0.50;;